createdAt,value
2022-12-24T00:00:13.426Z,1005.64
2022-12-24T00:01:13.613Z,1005.53
2022-12-24T00:02:13.912Z,1005.65
2022-12-24T00:03:13.564Z,1005.64
2022-12-24T00:04:14.079Z,1005.74
2022-12-24T00:05:13.376Z,1005.71
2022-12-24T00:06:13.393Z,1005.73
2022-12-24T00:07:13.479Z,1005.78
2022-12-24T00:08:13.438Z,1005.81
2022-12-24T00:09:13.479Z,1005.74
2022-12-24T00:10:13.518Z,1005.87
2022-12-24T00:11:13.466Z,1005.88
2022-12-24T00:12:13.628Z,1005.89
2022-12-24T00:13:13.796Z,1005.92
2022-12-24T00:14:13.871Z,1005.93
2022-12-24T00:15:12.940Z,1005.97
2022-12-24T00:16:13.032Z,1005.97
2022-12-24T00:17:13.346Z,1006.04
2022-12-24T00:18:13.312Z,1006.03
2022-12-24T00:19:13.198Z,1005.95
2022-12-24T00:20:13.233Z,1006.05
2022-12-24T00:21:13.486Z,1006.06
2022-12-24T00:22:13.657Z,1006.02
2022-12-24T00:23:13.557Z,1006.11
2022-12-24T00:24:13.496Z,1006.08
2022-12-24T00:25:13.579Z,1006.12
2022-12-24T00:26:13.461Z,1006.13
2022-12-24T00:27:13.541Z,1006.17
2022-12-24T00:28:13.473Z,1006.11
2022-12-24T00:29:14.761Z,1006.13
2022-12-24T00:30:13.680Z,1006.21
2022-12-24T00:31:13.698Z,1006.18
2022-12-24T00:32:13.704Z,1006.28
2022-12-24T00:33:13.855Z,1006.27
2022-12-24T00:34:13.327Z,1006.21
2022-12-24T00:35:13.460Z,1006.27
2022-12-24T00:36:13.481Z,1006.30
2022-12-24T00:37:13.494Z,1006.34
2022-12-24T00:38:13.548Z,1006.38
2022-12-24T00:39:13.467Z,1006.33
2022-12-24T00:40:13.539Z,1006.34
2022-12-24T00:41:13.543Z,1006.36
2022-12-24T00:42:13.814Z,1006.28
2022-12-24T00:43:13.672Z,1006.32
2022-12-24T00:44:13.559Z,1006.27
2022-12-24T00:45:13.870Z,1006.33
2022-12-24T00:46:14.165Z,1006.24
2022-12-24T00:47:13.555Z,1006.31
2022-12-24T00:48:13.421Z,1006.28
2022-12-24T00:49:13.684Z,1006.33
2022-12-24T00:50:13.666Z,1006.31
2022-12-24T00:51:13.810Z,1006.39
2022-12-24T00:52:13.908Z,1006.18
2022-12-24T00:53:13.184Z,1006.36
2022-12-24T00:54:13.424Z,1006.38
2022-12-24T00:55:13.506Z,1006.40
2022-12-24T00:56:13.538Z,1006.36
2022-12-24T00:57:13.464Z,1006.43
2022-12-24T00:58:13.322Z,1006.51
2022-12-24T00:59:13.637Z,1006.32
2022-12-24T01:00:13.504Z,1006.46
2022-12-24T01:01:13.537Z,1006.51
2022-12-24T01:02:13.773Z,1006.55
2022-12-24T01:03:12.883Z,1006.57
2022-12-24T01:04:13.192Z,1006.48
2022-12-24T01:05:14.027Z,1006.59
2022-12-24T01:06:13.026Z,1006.57
2022-12-24T01:07:12.953Z,1006.51
2022-12-24T01:08:12.868Z,1006.59
2022-12-24T01:09:13.748Z,1006.58
2022-12-24T01:10:13.781Z,1006.51
2022-12-24T01:11:13.869Z,1006.55
2022-12-24T01:12:13.820Z,1006.60
2022-12-24T01:13:14.943Z,1006.56
2022-12-24T01:14:13.206Z,1006.60
2022-12-24T01:15:13.130Z,1006.60
2022-12-24T01:16:13.193Z,1006.56
2022-12-24T01:17:13.145Z,1006.61
2022-12-24T01:18:13.010Z,1006.61
2022-12-24T01:19:13.113Z,1006.68
2022-12-24T01:20:13.359Z,1006.71
2022-12-24T01:21:13.350Z,1006.68
2022-12-24T01:22:13.290Z,1006.64
2022-12-24T01:23:13.236Z,1006.68
2022-12-24T01:24:13.152Z,1006.80
2022-12-24T01:25:13.169Z,1006.78
2022-12-24T01:26:13.123Z,1006.71
2022-12-24T01:27:13.095Z,1006.76
2022-12-24T01:28:18.057Z,1006.83
2022-12-24T01:29:12.985Z,1006.84
2022-12-24T01:30:12.915Z,1006.91
2022-12-24T01:31:13.097Z,1006.94
2022-12-24T01:32:13.142Z,1007.06
2022-12-24T01:33:13.489Z,1007.09
2022-12-24T01:34:13.436Z,1007.06
2022-12-24T01:35:13.351Z,1007.13
2022-12-24T01:36:13.494Z,1007.05
2022-12-24T01:37:13.553Z,1007.07
2022-12-24T01:38:13.473Z,1007.11
2022-12-24T01:39:13.458Z,1007.10
2022-12-24T01:40:13.639Z,1007.17
2022-12-24T01:41:13.577Z,1007.14
2022-12-24T01:42:13.726Z,1007.24
2022-12-24T01:43:14.142Z,1007.24
2022-12-24T01:44:13.301Z,1007.16
2022-12-24T01:45:13.198Z,1007.22
2022-12-24T01:46:13.324Z,1007.21
2022-12-24T01:47:13.211Z,1007.17
2022-12-24T01:48:13.475Z,1007.19
2022-12-24T01:49:13.484Z,1007.21
2022-12-24T01:50:13.473Z,1007.23
2022-12-24T01:51:13.796Z,1007.22
2022-12-24T01:52:13.760Z,1007.23
2022-12-24T01:53:13.839Z,1007.23
2022-12-24T01:54:13.780Z,1007.32
2022-12-24T01:55:15.130Z,1007.21
2022-12-24T01:56:13.059Z,1007.31
2022-12-24T01:57:13.096Z,1007.27
2022-12-24T01:58:13.251Z,1007.30
2022-12-24T01:59:13.190Z,1007.33
2022-12-24T02:00:13.207Z,1007.27
2022-12-24T02:01:13.387Z,1007.37
2022-12-24T02:02:13.972Z,1007.36
2022-12-24T02:03:13.367Z,1007.39
2022-12-24T02:04:13.370Z,1007.41
2022-12-24T02:05:14.486Z,1007.38
2022-12-24T02:06:13.537Z,1007.45
2022-12-24T02:07:13.958Z,1007.43
2022-12-24T02:08:12.895Z,1007.40
2022-12-24T02:09:13.106Z,1007.51
2022-12-24T02:10:13.237Z,1007.49
2022-12-24T02:11:13.271Z,1007.52
2022-12-24T02:12:13.099Z,1007.48
2022-12-24T02:13:13.197Z,1007.52
2022-12-24T02:14:13.067Z,1007.51
2022-12-24T02:15:13.061Z,1007.56
2022-12-24T02:16:13.193Z,1007.61
2022-12-24T02:17:13.432Z,1007.62
2022-12-24T02:18:13.350Z,1007.71
2022-12-24T02:19:13.300Z,1007.64
2022-12-24T02:20:13.686Z,1007.72
2022-12-24T02:21:13.634Z,1007.69
2022-12-24T02:22:13.661Z,1007.71
2022-12-24T02:23:13.596Z,1007.71
2022-12-24T02:24:13.413Z,1007.73
2022-12-24T02:25:13.661Z,1007.62
2022-12-24T02:26:13.920Z,1007.69
2022-12-24T02:27:12.954Z,1007.74
2022-12-24T02:28:12.892Z,1007.73
2022-12-24T02:29:12.869Z,1007.79
2022-12-24T02:30:13.793Z,1007.82
2022-12-24T02:31:13.794Z,1007.86
2022-12-24T02:32:13.827Z,1007.88
2022-12-24T02:33:13.715Z,1007.91
2022-12-24T02:34:13.829Z,1007.95
2022-12-24T02:35:13.746Z,1007.98
2022-12-24T02:36:13.641Z,1008.08
2022-12-24T02:37:13.535Z,1008.03
2022-12-24T02:38:13.717Z,1008.11
2022-12-24T02:39:13.740Z,1008.07
2022-12-24T02:40:16.607Z,1008.09
2022-12-24T02:41:13.104Z,1008.06
2022-12-24T02:42:13.048Z,1008.08
2022-12-24T02:43:13.012Z,1008.12
2022-12-24T02:44:13.185Z,1008.13
2022-12-24T02:45:13.292Z,1008.18
2022-12-24T02:46:13.499Z,1008.10
2022-12-24T02:47:13.568Z,1008.18
2022-12-24T02:48:13.634Z,1008.14
2022-12-24T02:49:13.521Z,1008.19
2022-12-24T02:50:13.649Z,1008.14
2022-12-24T02:51:13.627Z,1008.22
2022-12-24T02:52:13.832Z,1008.20
2022-12-24T02:53:13.880Z,1008.17
2022-12-24T02:54:13.933Z,1008.25
2022-12-24T02:55:13.151Z,1008.24
2022-12-24T02:56:13.414Z,1008.29
2022-12-24T02:57:13.710Z,1008.31
2022-12-24T02:58:13.757Z,1008.27
2022-12-24T02:59:13.962Z,1008.26
2022-12-24T03:00:12.972Z,1008.29
2022-12-24T03:01:13.103Z,1008.31
2022-12-24T03:02:13.403Z,1008.27
2022-12-24T03:03:13.921Z,1008.32
2022-12-24T03:04:13.331Z,1008.32
2022-12-24T03:05:13.273Z,1008.33
2022-12-24T03:06:13.207Z,1008.26
2022-12-24T03:07:13.550Z,1008.28
2022-12-24T03:08:13.915Z,1008.27
2022-12-24T03:09:12.871Z,1008.32
2022-12-24T03:10:14.107Z,1008.30
2022-12-24T03:11:13.196Z,1008.34
2022-12-24T03:12:13.436Z,1008.31
2022-12-24T03:13:13.368Z,1008.31
2022-12-24T03:14:13.318Z,1008.27
2022-12-24T03:15:13.427Z,1008.27
2022-12-24T03:16:13.838Z,1008.30
2022-12-24T03:17:13.031Z,1008.35
2022-12-24T03:18:12.889Z,1008.30
2022-12-24T03:19:12.770Z,1008.28
2022-12-24T03:20:13.731Z,1008.27
2022-12-24T03:21:14.361Z,1008.32
2022-12-24T03:22:13.288Z,1008.35
2022-12-24T03:23:13.186Z,1008.29
2022-12-24T03:24:13.208Z,1008.27
2022-12-24T03:25:13.349Z,1008.32
2022-12-24T03:26:13.520Z,1008.26
2022-12-24T03:27:13.594Z,1008.31
2022-12-24T03:28:13.815Z,1008.38
2022-12-24T03:29:13.800Z,1008.35
2022-12-24T03:30:13.852Z,1008.35
2022-12-24T03:31:14.235Z,1008.27
2022-12-24T03:32:13.236Z,1008.34
2022-12-24T03:33:13.392Z,1008.36
2022-12-24T03:34:13.350Z,1008.36
2022-12-24T03:35:13.295Z,1008.36
2022-12-24T03:36:13.256Z,1008.36
2022-12-24T03:37:13.198Z,1008.39
2022-12-24T03:38:13.195Z,1008.41
2022-12-24T03:39:13.157Z,1008.44
2022-12-24T03:40:13.454Z,1008.48
2022-12-24T03:41:13.477Z,1008.53
2022-12-24T03:42:13.688Z,1008.50
2022-12-24T03:43:14.327Z,1008.52
2022-12-24T03:44:13.594Z,1008.54
2022-12-24T03:45:13.497Z,1008.61
2022-12-24T03:46:13.536Z,1008.59
2022-12-24T03:47:13.696Z,1008.58
2022-12-24T03:48:13.607Z,1008.58
2022-12-24T03:49:13.572Z,1008.51
2022-12-24T03:50:13.583Z,1008.56
2022-12-24T03:51:13.661Z,1008.55
2022-12-24T03:52:13.912Z,1008.49
2022-12-24T03:53:13.003Z,1008.50
2022-12-24T03:54:12.947Z,1008.53
2022-12-24T03:55:12.907Z,1008.55
2022-12-24T03:56:13.150Z,1008.57
2022-12-24T03:57:13.326Z,1008.55
2022-12-24T03:58:13.645Z,1008.51
2022-12-24T03:59:13.925Z,1008.54
2022-12-24T04:00:12.950Z,1008.58
2022-12-24T04:01:13.184Z,1008.60
2022-12-24T04:02:13.311Z,1008.61
2022-12-24T04:03:13.626Z,1008.65
2022-12-24T04:04:13.864Z,1008.61
2022-12-24T04:05:13.863Z,1008.64
2022-12-24T04:06:14.163Z,1008.63
2022-12-24T04:07:13.544Z,1008.63
2022-12-24T04:08:13.911Z,1008.68
2022-12-24T04:09:13.364Z,1008.64
2022-12-24T04:10:13.390Z,1008.67
2022-12-24T04:11:13.267Z,1008.68
2022-12-24T04:12:13.384Z,1008.58
2022-12-24T04:13:13.696Z,1008.60
2022-12-24T04:14:14.786Z,1008.58
2022-12-24T04:15:13.701Z,1008.55
2022-12-24T04:16:13.723Z,1008.59
2022-12-24T04:17:13.933Z,1008.52
2022-12-24T04:18:12.974Z,1008.61
2022-12-24T04:19:13.060Z,1008.65
2022-12-24T04:20:12.979Z,1008.63
2022-12-24T04:21:12.970Z,1008.66
2022-12-24T04:22:13.308Z,1008.71
2022-12-24T04:23:13.302Z,1008.69
2022-12-24T04:24:13.499Z,1008.68
2022-12-24T04:25:13.588Z,1008.68
2022-12-24T04:26:13.547Z,1008.75
2022-12-24T04:27:13.566Z,1008.70
2022-12-24T04:28:13.840Z,1008.71
2022-12-24T04:29:13.832Z,1008.73
2022-12-24T04:30:13.093Z,1008.72
2022-12-24T04:31:13.354Z,1008.71
2022-12-24T04:32:13.378Z,1008.74
2022-12-24T04:33:13.541Z,1008.76
2022-12-24T04:34:13.640Z,1008.74
2022-12-24T04:35:14.240Z,1008.81
2022-12-24T04:36:13.312Z,1008.84
2022-12-24T04:37:13.320Z,1008.85
2022-12-24T04:38:13.298Z,1008.85
2022-12-24T04:39:13.175Z,1008.85
2022-12-24T04:40:13.242Z,1008.87
2022-12-24T04:41:19.135Z,1008.92
2022-12-24T04:42:13.775Z,1008.92
2022-12-24T04:43:13.809Z,1008.91
2022-12-24T04:44:13.754Z,1008.93
2022-12-24T04:45:13.705Z,1008.85
2022-12-24T04:46:13.825Z,1008.87
2022-12-24T04:47:13.059Z,1008.94
2022-12-24T04:48:13.039Z,1008.96
2022-12-24T04:49:13.035Z,1008.96
2022-12-24T04:50:13.344Z,1008.97
2022-12-24T04:51:13.301Z,1009.02
2022-12-24T04:52:13.424Z,1009.00
2022-12-24T04:53:13.500Z,1008.89
2022-12-24T04:54:13.904Z,1008.95
2022-12-24T04:55:12.944Z,1008.90
2022-12-24T04:56:13.251Z,1008.93
2022-12-24T04:57:13.439Z,1008.91
2022-12-24T04:58:13.454Z,1008.95
2022-12-24T04:59:13.418Z,1008.94
2022-12-24T05:00:13.299Z,1008.90
2022-12-24T05:01:13.430Z,1008.92
2022-12-24T05:02:13.625Z,1008.92
2022-12-24T05:03:13.879Z,1008.94
2022-12-24T05:04:12.928Z,1008.97
2022-12-24T05:05:12.978Z,1008.94
2022-12-24T05:06:13.479Z,1008.97
2022-12-24T05:07:13.608Z,1009.05
2022-12-24T05:08:13.580Z,1008.96
2022-12-24T05:09:13.543Z,1008.97
2022-12-24T05:10:13.484Z,1008.97
2022-12-24T05:11:13.661Z,1009.03
2022-12-24T05:12:13.640Z,1009.03
2022-12-24T05:13:13.873Z,1009.03
2022-12-24T05:14:13.189Z,1008.99
2022-12-24T05:15:13.135Z,1008.99
2022-12-24T05:16:13.256Z,1009.00
2022-12-24T05:17:13.639Z,1009.07
2022-12-24T05:18:14.112Z,1009.04
2022-12-24T05:19:13.001Z,1009.10
2022-12-24T05:20:12.908Z,1009.11
2022-12-24T05:21:12.854Z,1009.13
2022-12-24T05:22:13.195Z,1009.12
2022-12-24T05:23:13.131Z,1009.09
2022-12-24T05:24:13.178Z,1009.05
2022-12-24T05:25:13.260Z,1009.02
2022-12-24T05:26:13.321Z,1009.05
2022-12-24T05:27:13.426Z,1009.12
2022-12-24T05:28:13.609Z,1009.11
2022-12-24T05:29:13.477Z,1009.16
2022-12-24T05:30:13.630Z,1009.20
2022-12-24T05:31:13.930Z,1009.16
2022-12-24T05:32:12.805Z,1009.10
2022-12-24T05:33:14.062Z,1009.13
2022-12-24T05:34:13.153Z,1009.17
2022-12-24T05:35:13.064Z,1009.13
2022-12-24T05:36:13.240Z,1009.15
2022-12-24T05:37:13.479Z,1009.18
2022-12-24T05:38:13.626Z,1009.18
2022-12-24T05:39:16.123Z,1009.17
2022-12-24T05:40:13.399Z,1009.12
2022-12-24T05:41:13.540Z,1009.14
2022-12-24T05:42:13.506Z,1009.16
2022-12-24T05:43:13.702Z,1009.23
2022-12-24T05:44:13.888Z,1009.23
2022-12-24T05:45:13.001Z,1009.23
2022-12-24T05:46:12.908Z,1009.31
2022-12-24T05:47:12.801Z,1009.28
2022-12-24T05:48:13.702Z,1009.21
2022-12-24T05:49:13.925Z,1009.28
2022-12-24T05:50:12.925Z,1009.32
2022-12-24T05:51:12.875Z,1009.33
2022-12-24T05:52:14.038Z,1009.29
2022-12-24T05:53:12.868Z,1009.34
2022-12-24T05:54:13.902Z,1009.40
2022-12-24T05:55:12.926Z,1009.37
2022-12-24T05:56:12.970Z,1009.30
2022-12-24T05:57:13.050Z,1009.42
2022-12-24T05:58:12.955Z,1009.47
2022-12-24T05:59:13.302Z,1009.41
2022-12-24T06:00:13.368Z,1009.36
2022-12-24T06:01:13.472Z,1009.36
2022-12-24T06:02:13.771Z,1009.34
2022-12-24T06:03:14.132Z,1009.34
2022-12-24T06:04:13.124Z,1009.37
2022-12-24T06:05:13.157Z,1009.41
2022-12-24T06:06:13.121Z,1009.41
2022-12-24T06:07:13.179Z,1009.41
2022-12-24T06:08:13.169Z,1009.42
2022-12-24T06:09:13.118Z,1009.37
2022-12-24T06:10:13.124Z,1009.38
2022-12-24T06:11:13.275Z,1009.45
2022-12-24T06:12:13.284Z,1009.39
2022-12-24T06:13:13.223Z,1009.40
2022-12-24T06:14:13.350Z,1009.32
2022-12-24T06:15:16.273Z,1009.35
2022-12-24T06:16:13.558Z,1009.39
2022-12-24T06:17:13.519Z,1009.34
2022-12-24T06:18:13.696Z,1009.34
2022-12-24T06:19:13.619Z,1009.45
2022-12-24T06:20:13.852Z,1009.42
2022-12-24T06:21:13.777Z,1009.48
2022-12-24T06:22:13.769Z,1009.51
2022-12-24T06:23:15.974Z,1009.45
2022-12-24T06:24:13.052Z,1009.51
2022-12-24T06:25:13.220Z,1009.53
2022-12-24T06:26:13.506Z,1009.54
2022-12-24T06:27:13.669Z,1009.43
2022-12-24T06:28:13.882Z,1009.56
2022-12-24T06:29:14.091Z,1009.52
2022-12-24T06:30:13.070Z,1009.57
2022-12-24T06:31:13.457Z,1009.60
2022-12-24T06:32:13.874Z,1009.62
2022-12-24T06:33:14.367Z,1009.56
2022-12-24T06:34:13.719Z,1009.76
2022-12-24T06:35:13.682Z,1009.72
2022-12-24T06:36:17.454Z,1009.70
2022-12-24T06:37:12.838Z,1009.74
2022-12-24T06:38:14.043Z,1009.75
2022-12-24T06:39:13.200Z,1009.81
2022-12-24T06:40:13.159Z,1009.72
2022-12-24T06:41:13.337Z,1009.84
2022-12-24T06:42:13.671Z,1009.86
2022-12-24T06:43:13.579Z,1009.85
2022-12-24T06:44:13.483Z,1009.79
2022-12-24T06:45:13.440Z,1009.87
2022-12-24T06:46:13.439Z,1009.76
2022-12-24T06:47:13.573Z,1009.80
2022-12-24T06:48:13.519Z,1009.85
2022-12-24T06:49:13.679Z,1009.91
2022-12-24T06:50:13.735Z,1009.84
2022-12-24T06:51:13.761Z,1009.88
2022-12-24T06:52:14.016Z,1009.91
2022-12-24T06:53:13.021Z,1009.88
2022-12-24T06:54:13.410Z,1009.92
2022-12-24T06:55:13.521Z,1009.95
2022-12-24T06:56:13.905Z,1009.92
2022-12-24T06:57:13.149Z,1010.01
2022-12-24T06:58:13.376Z,1010.09
2022-12-24T06:59:13.584Z,1010.01
2022-12-24T07:00:13.508Z,1010.02
2022-12-24T07:01:13.655Z,1009.94
2022-12-24T07:02:14.075Z,1010.04
2022-12-24T07:03:13.534Z,1010.01
2022-12-24T07:04:19.815Z,1010.06
2022-12-24T07:05:13.799Z,1010.06
2022-12-24T07:06:13.901Z,1010.06
2022-12-24T07:07:12.986Z,1010.02
2022-12-24T07:08:12.864Z,1010.06
2022-12-24T07:09:13.814Z,1010.12
2022-12-24T07:10:13.929Z,1010.22
2022-12-24T07:11:13.151Z,1010.07
2022-12-24T07:12:13.131Z,1010.21
2022-12-24T07:13:12.957Z,1010.15
2022-12-24T07:14:13.407Z,1010.30
2022-12-24T07:15:13.585Z,1010.21
2022-12-24T07:16:13.737Z,1010.26
2022-12-24T07:17:13.934Z,1010.28
2022-12-24T07:18:13.269Z,1010.27
2022-12-24T07:19:13.347Z,1010.34
2022-12-24T07:20:13.378Z,1010.08
2022-12-24T07:21:13.705Z,1010.22
2022-12-24T07:22:15.910Z,1010.26
2022-12-24T07:23:13.458Z,1010.26
2022-12-24T07:24:13.706Z,1010.32
2022-12-24T07:25:13.908Z,1010.27
2022-12-24T07:26:12.945Z,1010.27
2022-12-24T07:27:13.148Z,1010.28
2022-12-24T07:28:13.251Z,1010.28
2022-12-24T07:29:13.333Z,1010.33
2022-12-24T07:30:13.388Z,1010.32
2022-12-24T07:31:13.441Z,1010.31
2022-12-24T07:32:13.449Z,1010.37
2022-12-24T07:33:13.407Z,1010.28
2022-12-24T07:34:13.312Z,1010.34
2022-12-24T07:35:13.183Z,1010.28
2022-12-24T07:36:13.231Z,1010.31
2022-12-24T07:37:13.731Z,1010.37
2022-12-24T07:38:14.071Z,1010.36
2022-12-24T07:39:12.903Z,1010.42
2022-12-24T07:40:12.991Z,1010.42
2022-12-24T07:41:13.126Z,1010.40
2022-12-24T07:42:13.002Z,1010.47
2022-12-24T07:43:13.315Z,1010.45
2022-12-24T07:44:13.231Z,1010.50
2022-12-24T07:45:13.089Z,1010.51
2022-12-24T07:46:13.144Z,1010.44
2022-12-24T07:47:13.358Z,1010.47
2022-12-24T07:48:13.298Z,1010.56
2022-12-24T07:49:13.219Z,1010.54
2022-12-24T07:50:13.291Z,1010.52
2022-12-24T07:51:13.233Z,1010.51
2022-12-24T07:52:13.453Z,1010.54
2022-12-24T07:53:13.721Z,1010.58
2022-12-24T07:54:13.635Z,1010.57
2022-12-24T07:55:13.709Z,1010.52
2022-12-24T07:56:13.778Z,1010.63
2022-12-24T07:57:13.708Z,1010.60
2022-12-24T07:58:14.147Z,1010.58
2022-12-24T07:59:13.185Z,1010.53
2022-12-24T08:00:13.025Z,1010.40
2022-12-24T08:01:13.131Z,1010.55
2022-12-24T08:02:18.149Z,1010.49
2022-12-24T08:03:13.871Z,1010.55
2022-12-24T08:04:13.337Z,1010.59
2022-12-24T08:05:13.343Z,1010.62
2022-12-24T08:06:13.320Z,1010.54
2022-12-24T08:07:13.212Z,1010.65
2022-12-24T08:08:13.093Z,1010.67
2022-12-24T08:09:13.182Z,1010.64
2022-12-24T08:10:13.125Z,1010.64
2022-12-24T08:11:12.982Z,1010.75
2022-12-24T08:12:13.171Z,1010.78
2022-12-24T08:13:13.227Z,1010.77
2022-12-24T08:14:13.420Z,1010.85
2022-12-24T08:15:13.299Z,1010.78
2022-12-24T08:16:13.277Z,1010.90
2022-12-24T08:17:13.550Z,1010.90
2022-12-24T08:18:13.568Z,1010.95
2022-12-24T08:19:13.488Z,1011.03
2022-12-24T08:20:13.480Z,1010.95
2022-12-24T08:21:13.622Z,1010.92
2022-12-24T08:22:13.487Z,1010.94
2022-12-24T08:23:13.526Z,1011.05
2022-12-24T08:24:13.419Z,1010.98
2022-12-24T08:25:13.334Z,1011.01
2022-12-24T08:26:13.428Z,1011.02
2022-12-24T08:27:13.611Z,1011.00
2022-12-24T08:28:13.845Z,1011.01
2022-12-24T08:29:14.126Z,1010.97
2022-12-24T08:30:18.995Z,1011.01
2022-12-24T08:31:13.287Z,1011.05
2022-12-24T08:32:18.380Z,1011.06
2022-12-24T08:33:13.551Z,1011.00
2022-12-24T08:34:13.436Z,1011.06
2022-12-24T08:35:13.280Z,1011.11
2022-12-24T08:36:13.554Z,1011.16
2022-12-24T08:37:13.606Z,1011.25
2022-12-24T08:38:13.785Z,1011.22
2022-12-24T08:39:13.988Z,1011.25
2022-12-24T08:40:12.908Z,1011.23
2022-12-24T08:41:12.959Z,1011.17
2022-12-24T08:42:13.239Z,1011.22
2022-12-24T08:43:13.258Z,1011.28
2022-12-24T08:44:13.154Z,1011.36
2022-12-24T08:45:13.424Z,1011.31
2022-12-24T08:46:13.495Z,1011.36
2022-12-24T08:47:13.507Z,1011.30
2022-12-24T08:48:13.513Z,1011.32
2022-12-24T08:49:13.445Z,1011.31
2022-12-24T08:50:13.568Z,1011.27
2022-12-24T08:51:13.635Z,1011.29
2022-12-24T08:52:13.474Z,1011.28
2022-12-24T08:53:13.640Z,1011.32
2022-12-24T08:54:13.596Z,1011.36
2022-12-24T08:55:13.509Z,1011.37
2022-12-24T08:56:13.487Z,1011.40
2022-12-24T08:57:13.914Z,1011.44
2022-12-24T08:58:12.994Z,1011.44
2022-12-24T08:59:12.909Z,1011.43
2022-12-24T09:00:13.024Z,1011.45
2022-12-24T09:01:13.410Z,1011.44
2022-12-24T09:02:13.811Z,1011.53
2022-12-24T09:03:14.399Z,1011.52
2022-12-24T09:04:13.753Z,1011.60
2022-12-24T09:05:14.026Z,1011.56
2022-12-24T09:06:13.031Z,1011.59
2022-12-24T09:07:13.293Z,1011.58
2022-12-24T09:08:13.232Z,1011.61
2022-12-24T09:09:13.514Z,1011.70
2022-12-24T09:10:13.398Z,1011.74
2022-12-24T09:11:13.410Z,1011.77
2022-12-24T09:12:13.641Z,1011.71
2022-12-24T09:13:13.655Z,1011.72
2022-12-24T09:14:13.625Z,1011.72
2022-12-24T09:15:13.596Z,1011.67
2022-12-24T09:16:13.609Z,1011.67
2022-12-24T09:17:13.602Z,1011.76
2022-12-24T09:18:13.540Z,1011.76
2022-12-24T09:19:13.461Z,1011.75
2022-12-24T09:20:13.491Z,1011.86
2022-12-24T09:21:13.424Z,1011.82
2022-12-24T09:22:13.299Z,1011.94
2022-12-24T09:23:13.443Z,1011.81
2022-12-24T09:24:13.415Z,1011.89
2022-12-24T09:25:13.314Z,1011.89
2022-12-24T09:26:13.524Z,1011.93
2022-12-24T09:27:13.913Z,1011.87
2022-12-24T09:28:12.860Z,1011.92
2022-12-24T09:29:14.146Z,1011.94
2022-12-24T09:30:13.273Z,1011.92
2022-12-24T09:31:13.615Z,1011.99
2022-12-24T09:32:13.906Z,1012.02
2022-12-24T09:33:13.372Z,1012.07
2022-12-24T09:34:13.530Z,1012.09
2022-12-24T09:35:13.533Z,1012.10
2022-12-24T09:36:13.454Z,1012.13
2022-12-24T09:37:13.385Z,1012.17
2022-12-24T09:38:16.069Z,1012.13
2022-12-24T09:39:13.204Z,1012.15
2022-12-24T09:40:13.251Z,1012.18
2022-12-24T09:41:13.425Z,1012.22
2022-12-24T09:42:13.807Z,1012.20
2022-12-24T09:43:13.698Z,1012.21
2022-12-24T09:44:13.693Z,1012.27
2022-12-24T09:45:13.635Z,1012.29
2022-12-24T09:46:13.732Z,1012.32
2022-12-24T09:47:13.868Z,1012.31
2022-12-24T09:48:13.892Z,1012.34
2022-12-24T09:49:12.861Z,1012.28
2022-12-24T09:50:13.739Z,1012.37
2022-12-24T09:51:13.945Z,1012.39
2022-12-24T09:52:13.041Z,1012.41
2022-12-24T09:53:12.965Z,1012.40
2022-12-24T09:54:12.980Z,1012.38
2022-12-24T09:55:13.206Z,1012.31
2022-12-24T09:56:13.553Z,1012.35
2022-12-24T09:57:13.481Z,1012.44
2022-12-24T09:58:14.266Z,1012.44
2022-12-24T09:59:13.592Z,1012.41
2022-12-24T10:00:13.776Z,1012.47
2022-12-24T10:01:14.150Z,1012.44
2022-12-24T10:02:13.398Z,1012.42
2022-12-24T10:03:13.482Z,1012.48
2022-12-24T10:04:13.652Z,1012.55
2022-12-24T10:05:13.552Z,1012.55
2022-12-24T10:06:13.621Z,1012.52
2022-12-24T10:07:13.540Z,1012.50
2022-12-24T10:08:13.599Z,1012.35
2022-12-24T10:09:13.992Z,1012.53
2022-12-24T10:10:12.880Z,1012.52
2022-12-24T10:11:13.517Z,1012.49
2022-12-24T10:12:13.820Z,1012.51
2022-12-24T10:13:13.986Z,1012.54
2022-12-24T10:14:13.038Z,1012.57
2022-12-24T10:15:13.130Z,1012.58
2022-12-24T10:16:13.077Z,1012.54
2022-12-24T10:17:13.339Z,1012.39
2022-12-24T10:18:13.731Z,1012.57
2022-12-24T10:19:13.969Z,1012.53
2022-12-24T10:20:13.083Z,1012.52
2022-12-24T10:21:13.129Z,1012.56
2022-12-24T10:22:13.273Z,1012.54
2022-12-24T10:23:13.704Z,1012.58
2022-12-24T10:24:13.800Z,1012.55
2022-12-24T10:25:13.913Z,1012.61
2022-12-24T10:26:12.869Z,1012.54
2022-12-24T10:27:13.753Z,1012.48
2022-12-24T10:28:13.796Z,1012.57
2022-12-24T10:29:14.029Z,1012.62
2022-12-24T10:30:16.842Z,1012.65
2022-12-24T10:31:13.606Z,1012.63
2022-12-24T10:32:13.776Z,1012.72
2022-12-24T10:33:13.708Z,1012.65
2022-12-24T10:34:13.634Z,1012.73
2022-12-24T10:35:14.284Z,1012.71
2022-12-24T10:36:13.334Z,1012.56
2022-12-24T10:37:13.410Z,1012.71
2022-12-24T10:38:13.270Z,1012.72
2022-12-24T10:39:13.228Z,1012.73
2022-12-24T10:40:13.298Z,1012.72
2022-12-24T10:41:13.389Z,1012.53
2022-12-24T10:42:13.275Z,1012.69
2022-12-24T10:43:13.243Z,1012.58
2022-12-24T10:44:13.104Z,1012.66
2022-12-24T10:45:12.972Z,1012.63
2022-12-24T10:46:13.088Z,1012.63
2022-12-24T10:47:13.400Z,1012.58
2022-12-24T10:48:13.508Z,1012.55
2022-12-24T10:49:13.516Z,1012.61
2022-12-24T10:50:13.459Z,1012.65
2022-12-24T10:51:13.430Z,1012.58
2022-12-24T10:52:13.390Z,1012.61
2022-12-24T10:53:13.593Z,1012.56
2022-12-24T10:54:13.599Z,1012.63
2022-12-24T10:55:13.824Z,1012.49
2022-12-24T10:56:14.185Z,1012.54
2022-12-24T10:57:13.513Z,1012.57
2022-12-24T10:58:13.388Z,1012.56
2022-12-24T10:59:13.499Z,1012.53
2022-12-24T11:00:13.708Z,1012.56
2022-12-24T11:01:13.702Z,1012.57
2022-12-24T11:02:13.996Z,1012.54
2022-12-24T11:03:13.705Z,1012.46
2022-12-24T11:04:13.914Z,1012.48
2022-12-24T11:05:13.105Z,1012.43
2022-12-24T11:06:13.075Z,1012.52
2022-12-24T11:07:13.293Z,1012.50
2022-12-24T11:08:13.290Z,1012.52
2022-12-24T11:09:13.571Z,1012.45
2022-12-24T11:10:13.496Z,1012.52
2022-12-24T11:11:13.713Z,1012.47
2022-12-24T11:12:14.220Z,1012.50
2022-12-24T11:13:36.996Z,1012.52
2022-12-24T11:14:13.212Z,1012.52
2022-12-24T11:15:13.359Z,1012.55
2022-12-24T11:16:13.463Z,1012.49
2022-12-24T11:17:13.351Z,1012.56
2022-12-24T11:18:13.375Z,1012.57
2022-12-24T11:19:13.628Z,1012.58
2022-12-24T11:20:13.472Z,1012.61
2022-12-24T11:21:13.378Z,1012.59
2022-12-24T11:22:13.557Z,1012.61
2022-12-24T11:23:13.516Z,1012.57
2022-12-24T11:24:13.430Z,1012.58
2022-12-24T11:25:13.576Z,1012.52
2022-12-24T11:26:13.793Z,1012.45
2022-12-24T11:27:14.028Z,1012.52
2022-12-24T11:28:12.900Z,1012.41
2022-12-24T11:29:13.001Z,1012.45
2022-12-24T11:30:13.331Z,1012.39
2022-12-24T11:31:13.415Z,1012.36
2022-12-24T11:32:13.467Z,1012.38
2022-12-24T11:33:13.521Z,1012.43
2022-12-24T11:34:13.773Z,1012.34
2022-12-24T11:35:13.700Z,1012.41
2022-12-24T11:36:13.787Z,1012.39
2022-12-24T11:37:15.228Z,1012.42
2022-12-24T11:38:13.529Z,1012.47
2022-12-24T11:39:13.476Z,1012.41
2022-12-24T11:40:13.451Z,1012.37
2022-12-24T11:41:13.419Z,1012.44
2022-12-24T11:42:13.560Z,1012.38
2022-12-24T11:43:15.028Z,1012.41
2022-12-24T11:44:13.336Z,1012.39
2022-12-24T11:45:13.409Z,1012.30
2022-12-24T11:46:13.563Z,1012.39
2022-12-24T11:47:13.614Z,1012.41
2022-12-24T11:48:13.571Z,1012.47
2022-12-24T11:49:13.526Z,1012.51
2022-12-24T11:50:18.546Z,1012.52
2022-12-24T11:51:13.281Z,1012.54
2022-12-24T11:52:13.234Z,1012.52
2022-12-24T11:53:13.257Z,1012.57
2022-12-24T11:54:13.386Z,1012.55
2022-12-24T11:55:16.286Z,1012.50
2022-12-24T11:56:13.830Z,1012.55
2022-12-24T11:57:14.155Z,1012.56
2022-12-24T11:58:13.087Z,1012.57
2022-12-24T11:59:13.075Z,1012.54
2022-12-24T12:00:13.193Z,1012.55
2022-12-24T12:01:15.865Z,1012.53
2022-12-24T12:02:13.307Z,1012.55
2022-12-24T12:03:13.404Z,1012.58
2022-12-24T12:04:13.308Z,1012.66
2022-12-24T12:05:13.598Z,1012.58